Terminal Aerodrome Forecast
Issued by NWS

Home | Current Version | Previous Version | Text Only | Print | Product List | Glossary On
Versions: 1 2 3 4 5 6 7 8 9 10 11 12 13 14 15 16 17 18
000
FTUS44 KLZK 261100 AAA
TAFBPK
TAF AMD
KBPK 261156Z 2612/2712 21004KT 5SM BR SKC
      TEMPO 2612/2614 2SM BR
     FM261500 21010KT P6SM SCT050
     FM270200 20003KT P6SM SKC=

USA.gov is the U.S. government's official web portal to all federal, state and local government web resources and services.